Dimitrios X. — SVA7053 — position and weather

sailwx.info

Track history (hours):
 
Tides and Currents Weather Stations Pressure Air Temp Water Temp Dewpoint Dewpoint Depression Visibility Wind Speed Wind Dir Waves Ship Positions

Dimitrios X.

Last reported at 2018-Feb-19 06:30 UTC. Time now 2018-Feb-19 06:32 UTC.
Position N 40°47' E 024°42'.

Length 100 m; draft 2.3 m.

Type: Ship. MMSI: 239965400.

Date/timePositionNaut miles runAvg speedWind from/ knotsBaromVisibWave heightAir tempDewpointWater temp
2018-Feb-19 06:30N 40°47' E 024°42'1 2.4
2018-Feb-19 06:00N 40°48' E 024°41'4 7.5
2018-Feb-19 05:30N 40°51' E 024°42'0 0.0
2018-Feb-18 17:43N 40°51' E 024°42'1 3.3
2018-Feb-18 17:30N 40°52' E 024°41'5 9.6
2018-Feb-18 17:00N 40°47' E 024°42'0 0.0
2018-Feb-18 16:30N 40°47' E 024°42'0 0.0
2018-Feb-18 16:00N 40°47' E 024°42'1 2.2
2018-Feb-18 15:30N 40°48' E 024°42'4 7.3
2018-Feb-18 15:00N 40°51' E 024°42'0 1.0
2018-Feb-18 14:30N 40°52' E 024°42'5 9.7
2018-Feb-18 14:00N 40°47' E 024°42'0 0.0
2018-Feb-18 13:30N 40°47' E 024°42'0 0.0
2018-Feb-18 13:01N 40°47' E 024°42'4 7.0
2018-Feb-18 12:30N 40°50' E 024°41'2 3.6
2018-Feb-18 12:00N 40°51' E 024°42'1 1.0
2018-Feb-18 11:30N 40°52' E 024°41'5 9.6
2018-Feb-18 11:00N 40°47' E 024°42'0 0.0
2018-Feb-18 10:30N 40°47' E 024°42'1 2.4
2018-Feb-18 10:00N 40°48' E 024°41'4 7.3
2018-Feb-18 09:31N 40°51' E 024°42'0 0.0
2018-Feb-18 09:00N 40°51' E 024°42'2 4.7
2018-Feb-18 08:29N 40°49' E 024°42'2 4.7
2018-Feb-18 08:00N 40°47' E 024°42'0 0.0
2018-Feb-17 18:22N 40°47' E 024°43'1 3.4
2018-Feb-17 18:00N 40°48' E 024°42'4 7.1
2018-Feb-17 17:30N 40°51' E 024°42'0 0.0
2018-Feb-17 17:00N 40°51' E 024°42'1 1.9
2018-Feb-17 16:30N 40°52' E 024°41'5 9.3
2018-Feb-17 15:59N 40°47' E 024°42'0 0.0
2018-Feb-17 15:30N 40°47' E 024°42'0 0.0
2018-Feb-17 15:00N 40°47' E 024°42'1 2.7
2018-Feb-17 14:30N 40°48' E 024°41'3 7.0
2018-Feb-17 14:00N 40°51' E 024°42'1 1.3
2018-Feb-17 13:30N 40°52' E 024°41'5 9.7
2018-Feb-17 13:00N 40°47' E 024°42'0 0.0
2018-Feb-17 12:30N 40°47' E 024°42'0 0.5
2018-Feb-17 12:00N 40°47' E 024°43'0 0.0
2018-Feb-17 11:30N 40°47' E 024°43'0 0.0
2018-Feb-17 11:00N 40°47' E 024°43'0 0.0
2018-Feb-17 10:30N 40°47' E 024°43'0 0.0
2018-Feb-17 10:00N 40°47' E 024°43'0 0.0
2018-Feb-17 09:30N 40°47' E 024°43'0 0.0
2018-Feb-17 09:00N 40°47' E 024°43'0 0.0
2018-Feb-17 08:30N 40°47' E 024°43'0 0.0
2018-Feb-16 10:57N 40°47' E 024°43'0 0.0
2018-Feb-16 10:30N 40°47' E 024°43'2 3.1
2018-Feb-16 10:00N 40°48' E 024°41'3 6.9
2018-Feb-16 09:30N 40°51' E 024°42'0 0.0
2018-Feb-16 09:01N 40°51' E 024°42'2 4.9
2018-Feb-16 08:30N 40°49' E 024°41'2 4.8
2018-Feb-16 08:01N 40°47' E 024°42'0 0.0
2018-Feb-16 07:29N 40°47' E 024°42'0 0.0
2018-Feb-16 07:01N 40°47' E 024°42'4 7.6
2018-Feb-16 06:30N 40°51' E 024°41'1 3.0
2018-Feb-16 06:00N 40°51' E 024°42'1 1.8
2018-Feb-16 05:30N 40°51' E 024°41'5 9.8
2018-Feb-16 05:00N 40°47' E 024°42'1 2.5
2018-Feb-16 04:31N 40°48' E 024°41'4 7.1
2018-Feb-16 04:00N 40°51' E 024°42'0 0.0
2018-Feb-15 15:50N 40°51' E 024°42'1 3.1
2018-Feb-15 15:30N 40°52' E 024°41'5 9.8
2018-Feb-15 15:00N 40°47' E 024°42'0 0.1
2018-Feb-15 14:30N 40°47' E 024°42'0 0.0
2018-Feb-15 14:00N 40°47' E 024°42'4 7.2
2018-Feb-15 13:30N 40°50' E 024°41'2 3.5
2018-Feb-15 13:00N 40°51' E 024°42'3 5.1
2018-Feb-15 12:30N 40°49' E 024°41'2 4.7
2018-Feb-15 12:00N 40°47' E 024°42'2 3.2
2018-Feb-15 11:30N 40°48' E 024°41'3 7.0
2018-Feb-15 11:00N 40°51' E 024°42'0 0.0
2018-Feb-15 10:30N 40°51' E 024°42'2 4.9
2018-Feb-15 10:00N 40°49' E 024°42'2 4.6
2018-Feb-15 09:30N 40°47' E 024°42'0 0.0
2018-Feb-14 13:30N 40°47' E 024°43'0 0.5
2018-Feb-14 13:00N 40°47' E 024°42'4 7.9
2018-Feb-14 12:29N 40°51' E 024°40'2 3.2
2018-Feb-14 12:00N 40°51' E 024°42'1 1.7
2018-Feb-14 11:30N 40°52' E 024°41'5 9.1
2018-Feb-14 10:58N 40°47' E 024°42'0 0.0
2018-Feb-14 10:30N 40°47' E 024°42'1 2.5
2018-Feb-14 10:00N 40°48' E 024°41'4 7.0
2018-Feb-14 09:29N 40°51' E 024°42'0 0.0
2018-Feb-14 09:00N 40°51' E 024°42'2 4.6
2018-Feb-14 08:30N 40°49' E 024°41'3 5.0
2018-Feb-14 08:00N 40°47' E 024°42'0 0.0
2018-Feb-14 07:30N 40°47' E 024°42'0 0.0
2018-Feb-14 06:58N 40°47' E 024°42'4 8.3
2018-Feb-14 06:29N 40°50' E 024°40'2 3.6
2018-Feb-14 06:00N 40°51' E 024°42'1 2.2
2018-Feb-14 05:30N 40°51' E 024°41'4 8.7
2018-Feb-14 05:00N 40°47' E 024°42'0 0.0
2018-Feb-14 04:29N 40°47' E 024°42'0 0.0
2018-Feb-13 10:55N 40°47' E 024°42'0 0.0
2018-Feb-13 10:30N 40°47' E 024°42'0 0.0
2018-Feb-13 10:00N 40°47' E 024°42'0 0.0
2018-Feb-13 09:30N 40°47' E 024°42'0 0.0
2018-Feb-13 09:00N 40°47' E 024°42'0 0.0
2018-Feb-13 08:30N 40°47' E 024°42'0 0.0
2018-Feb-13 08:00N 40°47' E 024°42'1 1.7
2018-Feb-13 07:30N 40°48' E 024°42'4 7.8
2018-Feb-13 07:00N 40°51' E 024°42'0 0.0
2018-Feb-13 06:30N 40°51' E 024°42'2 4.6
2018-Feb-13 06:00N 40°49' E 024°41'3 5.2
2018-Feb-13 05:30N 40°47' E 024°42'4 7.7
2018-Feb-13 05:00N 40°50' E 024°40'2 3.6
2018-Feb-13 04:30N 40°51' E 024°42'1 1.8
2018-Feb-13 04:00N 40°52' E 024°41'5 9.8
2018-Feb-13 03:30N 40°47' E 024°42'0 0.0
2018-Feb-12 12:36N 40°47' E 024°42'0 0.0
2018-Feb-12 12:31N 40°47' E 024°42'4 7.4
2018-Feb-12 12:01N 40°50' E 024°40'2 3.4
2018-Feb-12 11:30N 40°51' E 024°42'1 1.6
2018-Feb-12 11:01N 40°52' E 024°41'5 9.8
2018-Feb-12 10:31N 40°47' E 024°42'0 0.0
2018-Feb-12 10:00N 40°47' E 024°42'0 0.0
2018-Feb-12 09:30N 40°47' E 024°42'4 7.2
2018-Feb-12 09:00N 40°50' E 024°41'2 3.4
2018-Feb-12 08:31N 40°51' E 024°42'1 1.5
2018-Feb-12 08:00N 40°52' E 024°41'5 9.9
2018-Feb-12 07:31N 40°47' E 024°42'0 0.0
2018-Feb-12 07:01N 40°47' E 024°42'0 0.0
2018-Feb-11 13:56N 40°47' E 024°42'4 8.2
2018-Feb-11 13:30N 40°50' E 024°41'2 3.5
2018-Feb-11 13:00N 40°51' E 024°42'2 4.5
2018-Feb-11 12:30N 40°49' E 024°42'2 4.9
2018-Feb-11 12:00N 40°47' E 024°42'2 3.0
2018-Feb-11 11:30N 40°48' E 024°41'4 7.4
2018-Feb-11 11:00N 40°51' E 024°42'0 0.0
2018-Feb-11 10:30N 40°51' E 024°42'2 4.5
2018-Feb-11 10:00N 40°49' E 024°42'2 5.0
2018-Feb-11 09:31N 40°47' E 024°42'0 0.1
2018-Feb-11 09:00N 40°47' E 024°42'4 7.5
2018-Feb-11 08:30N 40°50' E 024°40'2 3.7
2018-Feb-11 08:00N 40°51' E 024°42'0 1.0
2018-Feb-11 07:30N 40°52' E 024°42'5 9.3
2018-Feb-11 06:59N 40°47' E 024°42'0 0.6
2018-Feb-11 06:30N 40°47' E 024°42'1 3.0
2018-Feb-11 06:00N 40°48' E 024°41'4 7.2
2018-Feb-11 05:30N 40°51' E 024°42'0 0.0
2018-Feb-10 15:53N 40°51' E 024°42'1 1.9
2018-Feb-10 15:30N 40°52' E 024°41'5 9.8
2018-Feb-10 15:00N 40°47' E 024°42'0 0.0
2018-Feb-10 14:30N 40°47' E 024°42'0 0.0
2018-Feb-10 14:00N 40°47' E 024°42'0 0.0
2018-Feb-10 13:29N 40°47' E 024°42'4 7.9
2018-Feb-10 13:00N 40°50' E 024°40'2 3.4
2018-Feb-10 12:30N 40°51' E 024°42'1 2.5
2018-Feb-10 12:00N 40°52' E 024°41'5 9.8
2018-Feb-10 11:30N 40°47' E 024°42'3 0.1
2018-Feb-09 13:30N 40°50' E 024°41'2 3.6
2018-Feb-09 13:00N 40°51' E 024°42'2 4.6
2018-Feb-09 12:30N 40°49' E 024°41'3 5.3
2018-Feb-09 12:00N 40°47' E 024°42'0 0.0
2018-Feb-09 11:30N 40°47' E 024°42'0 0.0
2018-Feb-09 11:00N 40°47' E 024°42'1 1.1
2018-Feb-09 10:00N 40°48' E 024°41'4 7.6
2018-Feb-09 09:30N 40°51' E 024°42'0 0.0
2018-Feb-09 09:00N 40°51' E 024°42'5 4.7
2018-Feb-09 08:00N 40°47' E 024°42'0 0.0
2018-Feb-09 07:30N 40°47' E 024°42'  
Track history (hours):
 
Tides and Currents Weather Stations Pressure Air Temp Water Temp Dewpoint Dewpoint Depression Visibility Wind Speed Wind Dir Waves Ship Positions

Dimitrios X.

Last reported at 2018-Feb-19 06:30 UTC. Time now 2018-Feb-19 06:32 UTC.
Position N 40°47' E 024°42'.

Length 100 m; draft 2.3 m.

Type: Ship. MMSI: 239965400.

Date/timePositionNaut miles runAvg speedWind from/ knotsBaromVisibWave heightAir tempDewpointWater temp
2018-Feb-19 06:30N 40°47' E 024°42'1 2.4
2018-Feb-19 06:00N 40°48' E 024°41'4 7.5
2018-Feb-19 05:30N 40°51' E 024°42'0 0.0
2018-Feb-18 17:43N 40°51' E 024°42'1 3.3
2018-Feb-18 17:30N 40°52' E 024°41'5 9.6
2018-Feb-18 17:00N 40°47' E 024°42'0 0.0
2018-Feb-18 16:30N 40°47' E 024°42'0 0.0
2018-Feb-18 16:00N 40°47' E 024°42'1 2.2
2018-Feb-18 15:30N 40°48' E 024°42'4 7.3
2018-Feb-18 15:00N 40°51' E 024°42'0 1.0
2018-Feb-18 14:30N 40°52' E 024°42'5 9.7
2018-Feb-18 14:00N 40°47' E 024°42'0 0.0
2018-Feb-18 13:30N 40°47' E 024°42'0 0.0
2018-Feb-18 13:01N 40°47' E 024°42'4 7.0
2018-Feb-18 12:30N 40°50' E 024°41'2 3.6
2018-Feb-18 12:00N 40°51' E 024°42'1 1.0
2018-Feb-18 11:30N 40°52' E 024°41'5 9.6
2018-Feb-18 11:00N 40°47' E 024°42'0 0.0
2018-Feb-18 10:30N 40°47' E 024°42'1 2.4
2018-Feb-18 10:00N 40°48' E 024°41'4 7.3
2018-Feb-18 09:31N 40°51' E 024°42'0 0.0
2018-Feb-18 09:00N 40°51' E 024°42'2 4.7
2018-Feb-18 08:29N 40°49' E 024°42'2 4.7
2018-Feb-18 08:00N 40°47' E 024°42'0 0.0
2018-Feb-17 18:22N 40°47' E 024°43'1 3.4
2018-Feb-17 18:00N 40°48' E 024°42'4 7.1
2018-Feb-17 17:30N 40°51' E 024°42'0 0.0
2018-Feb-17 17:00N 40°51' E 024°42'1 1.9
2018-Feb-17 16:30N 40°52' E 024°41'5 9.3
2018-Feb-17 15:59N 40°47' E 024°42'0 0.0
2018-Feb-17 15:30N 40°47' E 024°42'0 0.0
2018-Feb-17 15:00N 40°47' E 024°42'1 2.7
2018-Feb-17 14:30N 40°48' E 024°41'3 7.0
2018-Feb-17 14:00N 40°51' E 024°42'1 1.3
2018-Feb-17 13:30N 40°52' E 024°41'5 9.7
2018-Feb-17 13:00N 40°47' E 024°42'0 0.0
2018-Feb-17 12:30N 40°47' E 024°42'0 0.5
2018-Feb-17 12:00N 40°47' E 024°43'0 0.0
2018-Feb-17 11:30N 40°47' E 024°43'0 0.0
2018-Feb-17 11:00N 40°47' E 024°43'0 0.0
2018-Feb-17 10:30N 40°47' E 024°43'0 0.0
2018-Feb-17 10:00N 40°47' E 024°43'0 0.0
2018-Feb-17 09:30N 40°47' E 024°43'0 0.0
2018-Feb-17 09:00N 40°47' E 024°43'0 0.0
2018-Feb-17 08:30N 40°47' E 024°43'0 0.0
2018-Feb-16 10:57N 40°47' E 024°43'0 0.0
2018-Feb-16 10:30N 40°47' E 024°43'2 3.1
2018-Feb-16 10:00N 40°48' E 024°41'3 6.9
2018-Feb-16 09:30N 40°51' E 024°42'0 0.0
2018-Feb-16 09:01N 40°51' E 024°42'2 4.9
2018-Feb-16 08:30N 40°49' E 024°41'2 4.8
2018-Feb-16 08:01N 40°47' E 024°42'0 0.0
2018-Feb-16 07:29N 40°47' E 024°42'0 0.0
2018-Feb-16 07:01N 40°47' E 024°42'4 7.6
2018-Feb-16 06:30N 40°51' E 024°41'1 3.0
2018-Feb-16 06:00N 40°51' E 024°42'1 1.8
2018-Feb-16 05:30N 40°51' E 024°41'5 9.8
2018-Feb-16 05:00N 40°47' E 024°42'1 2.5
2018-Feb-16 04:31N 40°48' E 024°41'4 7.1
2018-Feb-16 04:00N 40°51' E 024°42'0 0.0
2018-Feb-15 15:50N 40°51' E 024°42'1 3.1
2018-Feb-15 15:30N 40°52' E 024°41'5 9.8
2018-Feb-15 15:00N 40°47' E 024°42'0 0.1
2018-Feb-15 14:30N 40°47' E 024°42'0 0.0
2018-Feb-15 14:00N 40°47' E 024°42'4 7.2
2018-Feb-15 13:30N 40°50' E 024°41'2 3.5
2018-Feb-15 13:00N 40°51' E 024°42'3 5.1
2018-Feb-15 12:30N 40°49' E 024°41'2 4.7
2018-Feb-15 12:00N 40°47' E 024°42'2 3.2
2018-Feb-15 11:30N 40°48' E 024°41'3 7.0
2018-Feb-15 11:00N 40°51' E 024°42'0 0.0
2018-Feb-15 10:30N 40°51' E 024°42'2 4.9
2018-Feb-15 10:00N 40°49' E 024°42'2 4.6
2018-Feb-15 09:30N 40°47' E 024°42'0 0.0
2018-Feb-14 13:30N 40°47' E 024°43'0 0.5
2018-Feb-14 13:00N 40°47' E 024°42'4 7.9
2018-Feb-14 12:29N 40°51' E 024°40'2 3.2
2018-Feb-14 12:00N 40°51' E 024°42'1 1.7
2018-Feb-14 11:30N 40°52' E 024°41'5 9.1
2018-Feb-14 10:58N 40°47' E 024°42'0 0.0
2018-Feb-14 10:30N 40°47' E 024°42'1 2.5
2018-Feb-14 10:00N 40°48' E 024°41'4 7.0
2018-Feb-14 09:29N 40°51' E 024°42'0 0.0
2018-Feb-14 09:00N 40°51' E 024°42'2 4.6
2018-Feb-14 08:30N 40°49' E 024°41'3 5.0
2018-Feb-14 08:00N 40°47' E 024°42'0 0.0
2018-Feb-14 07:30N 40°47' E 024°42'0 0.0
2018-Feb-14 06:58N 40°47' E 024°42'4 8.3
2018-Feb-14 06:29N 40°50' E 024°40'2 3.6
2018-Feb-14 06:00N 40°51' E 024°42'1 2.2
2018-Feb-14 05:30N 40°51' E 024°41'4 8.7
2018-Feb-14 05:00N 40°47' E 024°42'0 0.0
2018-Feb-14 04:29N 40°47' E 024°42'0 0.0
2018-Feb-13 10:55N 40°47' E 024°42'0 0.0
2018-Feb-13 10:30N 40°47' E 024°42'0 0.0
2018-Feb-13 10:00N 40°47' E 024°42'0 0.0
2018-Feb-13 09:30N 40°47' E 024°42'0 0.0
2018-Feb-13 09:00N 40°47' E 024°42'0 0.0
2018-Feb-13 08:30N 40°47' E 024°42'0 0.0
2018-Feb-13 08:00N 40°47' E 024°42'1 1.7
2018-Feb-13 07:30N 40°48' E 024°42'4 7.8
2018-Feb-13 07:00N 40°51' E 024°42'0 0.0
2018-Feb-13 06:30N 40°51' E 024°42'2 4.6
2018-Feb-13 06:00N 40°49' E 024°41'3 5.2
2018-Feb-13 05:30N 40°47' E 024°42'4 7.7
2018-Feb-13 05:00N 40°50' E 024°40'2 3.6
2018-Feb-13 04:30N 40°51' E 024°42'1 1.8
2018-Feb-13 04:00N 40°52' E 024°41'5 9.8
2018-Feb-13 03:30N 40°47' E 024°42'0 0.0
2018-Feb-12 12:36N 40°47' E 024°42'0 0.0
2018-Feb-12 12:31N 40°47' E 024°42'4 7.4
2018-Feb-12 12:01N 40°50' E 024°40'2 3.4
2018-Feb-12 11:30N 40°51' E 024°42'1 1.6
2018-Feb-12 11:01N 40°52' E 024°41'5 9.8
2018-Feb-12 10:31N 40°47' E 024°42'0 0.0
2018-Feb-12 10:00N 40°47' E 024°42'0 0.0
2018-Feb-12 09:30N 40°47' E 024°42'4 7.2
2018-Feb-12 09:00N 40°50' E 024°41'2 3.4
2018-Feb-12 08:31N 40°51' E 024°42'1 1.5
2018-Feb-12 08:00N 40°52' E 024°41'5 9.9
2018-Feb-12 07:31N 40°47' E 024°42'0 0.0
2018-Feb-12 07:01N 40°47' E 024°42'0 0.0
2018-Feb-11 13:56N 40°47' E 024°42'4 8.2
2018-Feb-11 13:30N 40°50' E 024°41'2 3.5
2018-Feb-11 13:00N 40°51' E 024°42'2 4.5
2018-Feb-11 12:30N 40°49' E 024°42'2 4.9
2018-Feb-11 12:00N 40°47' E 024°42'2 3.0
2018-Feb-11 11:30N 40°48' E 024°41'4 7.4
2018-Feb-11 11:00N 40°51' E 024°42'0 0.0
2018-Feb-11 10:30N 40°51' E 024°42'2 4.5
2018-Feb-11 10:00N 40°49' E 024°42'2 5.0
2018-Feb-11 09:31N 40°47' E 024°42'0 0.1
2018-Feb-11 09:00N 40°47' E 024°42'4 7.5
2018-Feb-11 08:30N 40°50' E 024°40'2 3.7
2018-Feb-11 08:00N 40°51' E 024°42'0 1.0
2018-Feb-11 07:30N 40°52' E 024°42'5 9.3
2018-Feb-11 06:59N 40°47' E 024°42'0 0.6
2018-Feb-11 06:30N 40°47' E 024°42'1 3.0
2018-Feb-11 06:00N 40°48' E 024°41'4 7.2
2018-Feb-11 05:30N 40°51' E 024°42'0 0.0
2018-Feb-10 15:53N 40°51' E 024°42'1 1.9
2018-Feb-10 15:30N 40°52' E 024°41'5 9.8
2018-Feb-10 15:00N 40°47' E 024°42'0 0.0
2018-Feb-10 14:30N 40°47' E 024°42'0 0.0
2018-Feb-10 14:00N 40°47' E 024°42'0 0.0
2018-Feb-10 13:29N 40°47' E 024°42'4 7.9
2018-Feb-10 13:00N 40°50' E 024°40'2 3.4
2018-Feb-10 12:30N 40°51' E 024°42'1 2.5
2018-Feb-10 12:00N 40°52' E 024°41'5 9.8
2018-Feb-10 11:30N 40°47' E 024°42'3 0.1
2018-Feb-09 13:30N 40°50' E 024°41'2 3.6
2018-Feb-09 13:00N 40°51' E 024°42'2 4.6
2018-Feb-09 12:30N 40°49' E 024°41'3 5.3
2018-Feb-09 12:00N 40°47' E 024°42'0 0.0
2018-Feb-09 11:30N 40°47' E 024°42'0 0.0
2018-Feb-09 11:00N 40°47' E 024°42'1 1.1
2018-Feb-09 10:00N 40°48' E 024°41'4 7.6
2018-Feb-09 09:30N 40°51' E 024°42'0 0.0
2018-Feb-09 09:00N 40°51' E 024°42'5 4.7
2018-Feb-09 08:00N 40°47' E 024°42'0 0.0
2018-Feb-09 07:30N 40°47' E 024°42'  

Dump ship's entire track history